sensor_id;sensor_type;location;lat;lon;timestamp;pressure;altitude;pressure_sealevel;temperature;humidity
7022;BME280;3552;42.664;23.406;2022-10-16T00:01:28;49313.66;;;-141.28;100.00
7022;BME280;3552;42.664;23.406;2022-10-16T00:03:56;49317.56;;;-141.28;100.00
7022;BME280;3552;42.664;23.406;2022-10-16T00:06:24;49325.41;;;-141.28;100.00
7022;BME280;3552;42.664;23.406;2022-10-16T00:08:55;49345.03;;;-141.28;100.00
7022;BME280;3552;42.664;23.406;2022-10-16T00:11:25;49352.88;;;-141.28;100.00
7022;BME280;3552;42.664;23.406;2022-10-16T00:13:56;49329.34;;;-141.28;100.00
7022;BME280;3552;42.664;23.406;2022-10-16T00:16:23;49348.97;;;-141.28;100.00
7022;BME280;3552;42.664;23.406;2022-10-16T00:18:52;49323.44;;;-141.28;100.00
7022;BME280;3552;42.664;23.406;2022-10-16T00:21:20;49307.75;;;-141.28;100.00
7022;BME280;3552;42.664;23.406;2022-10-16T00:23:51;49329.34;;;-141.28;100.00
7022;BME280;3552;42.664;23.406;2022-10-16T00:26:20;49341.13;;;-141.28;100.00
7022;BME280;3552;42.664;23.406;2022-10-16T00:28:47;49376.44;;;-141.28;100.00
7022;BME280;3552;42.664;23.406;2022-10-16T00:31:14;49378.41;;;-141.28;100.00
7022;BME280;3552;42.664;23.406;2022-10-16T00:33:42;49392.13;;;-141.28;100.00
7022;BME280;3552;42.664;23.406;2022-10-16T00:36:11;49399.97;;;-141.28;100.00
7022;BME280;3552;42.664;23.406;2022-10-16T00:38:40;49403.91;;;-141.28;100.00
7022;BME280;3552;42.664;23.406;2022-10-16T00:41:11;49411.75;;;-141.28;100.00
7022;BME280;3552;42.664;23.406;2022-10-16T00:43:42;49431.38;;;-141.28;100.00
7022;BME280;3552;42.664;23.406;2022-10-16T00:46:19;49419.59;;;-141.28;100.00
7022;BME280;3552;42.664;23.406;2022-10-16T00:48:51;49405.88;;;-141.28;100.00
7022;BME280;3552;42.664;23.406;2022-10-16T00:51:24;49419.59;;;-141.28;100.00
7022;BME280;3552;42.664;23.406;2022-10-16T00:53:52;49407.84;;;-141.28;100.00
7022;BME280;3552;42.664;23.406;2022-10-16T00:56:19;49407.84;;;-141.28;100.00
7022;BME280;3552;42.664;23.406;2022-10-16T00:58:47;49380.34;;;-141.28;100.00
7022;BME280;3552;42.664;23.406;2022-10-16T01:01:15;49421.56;;;-141.28;100.00
7022;BME280;3552;42.664;23.406;2022-10-16T01:03:42;49396.06;;;-141.28;100.00
7022;BME280;3552;42.664;23.406;2022-10-16T01:06:27;49439.22;;;-141.28;100.00
7022;BME280;3552;42.664;23.406;2022-10-16T01:09:06;49429.41;;;-141.28;100.00
7022;BME280;3552;42.664;23.406;2022-10-16T01:11:44;49423.53;;;-141.28;100.00
7022;BME280;3552;42.664;23.406;2022-10-16T01:14:20;49419.59;;;-141.28;100.00
7022;BME280;3552;42.664;23.406;2022-10-16T01:16:53;49429.41;;;-141.28;100.00
7022;BME280;3552;42.664;23.406;2022-10-16T01:19:34;49443.16;;;-141.28;100.00
7022;BME280;3552;42.664;23.406;2022-10-16T01:22:03;49437.25;;;-141.28;100.00
7022;BME280;3552;42.664;23.406;2022-10-16T01:24:38;49447.06;;;-141.28;100.00
7022;BME280;3552;42.664;23.406;2022-10-16T01:27:14;49462.78;;;-141.28;100.00
7022;BME280;3552;42.664;23.406;2022-10-16T01:29:52;49502.03;;;-141.28;100.00
7022;BME280;3552;42.664;23.406;2022-10-16T01:32:23;49474.53;;;-141.28;100.00
7022;BME280;3552;42.664;23.406;2022-10-16T01:35:00;49502.03;;;-141.28;100.00
7022;BME280;3552;42.664;23.406;2022-10-16T01:37:34;49537.34;;;-141.28;100.00
7022;BME280;3552;42.664;23.406;2022-10-16T01:40:05;49486.31;;;-141.28;100.00
7022;BME280;3552;42.664;23.406;2022-10-16T01:42:40;49560.88;;;-141.28;100.00
7022;BME280;3552;42.664;23.406;2022-10-16T01:45:10;49533.41;;;-141.28;100.00
7022;BME280;3552;42.664;23.406;2022-10-16T01:47:39;49592.28;;;-141.28;100.00
7022;BME280;3552;42.664;23.406;2022-10-16T01:50:08;49576.59;;;-141.28;100.00
7022;BME280;3552;42.664;23.406;2022-10-16T01:52:39;49643.31;;;-141.28;100.00
7022;BME280;3552;42.664;23.406;2022-10-16T01:55:10;49651.16;;;-141.28;100.00
7022;BME280;3552;42.664;23.406;2022-10-16T01:57:44;49651.16;;;-141.28;100.00
7022;BME280;3552;42.664;23.406;2022-10-16T02:00:14;49659.00;;;-141.28;100.00
7022;BME280;3552;42.664;23.406;2022-10-16T02:02:46;49684.53;;;-141.28;100.00
7022;BME280;3552;42.664;23.406;2022-10-16T02:05:20;49678.63;;;-141.28;100.00
7022;BME280;3552;42.664;23.406;2022-10-16T02:07:49;49725.72;;;-141.28;100.00
7022;BME280;3552;42.664;23.406;2022-10-16T02:10:17;49757.13;;;-141.28;100.00
7022;BME280;3552;42.664;23.406;2022-10-16T02:12:49;49710.03;;;-141.28;100.00
7022;BME280;3552;42.664;23.406;2022-10-16T02:15:17;49764.97;;;-141.28;100.00
7022;BME280;3552;42.664;23.406;2022-10-16T02:17:46;49798.34;;;-141.28;100.00
7022;BME280;3552;42.664;23.406;2022-10-16T02:20:12;49786.56;;;-141.28;100.00
7022;BME280;3552;42.664;23.406;2022-10-16T02:22:42;49804.22;;;-141.28;100.00
7022;BME280;3552;42.664;23.406;2022-10-16T02:25:15;49827.78;;;-141.28;100.00
7022;BME280;3552;42.664;23.406;2022-10-16T02:27:50;49823.84;;;-141.28;100.00
7022;BME280;3552;42.664;23.406;2022-10-16T02:30:23;49780.69;;;-141.28;100.00
7022;BME280;3552;42.664;23.406;2022-10-16T02:32:51;49819.94;;;-141.28;100.00
7022;BME280;3552;42.664;23.406;2022-10-16T02:35:21;49819.94;;;-141.28;100.00
7022;BME280;3552;42.664;23.406;2022-10-16T02:37:50;49855.25;;;-141.28;100.00
7022;BME280;3552;42.664;23.406;2022-10-16T02:40:18;49890.56;;;-141.28;100.00
7022;BME280;3552;42.664;23.406;2022-10-16T02:42:52;49886.66;;;-141.28;100.00
7022;BME280;3552;42.664;23.406;2022-10-16T02:45:20;49906.28;;;-141.28;100.00
7022;BME280;3552;42.664;23.406;2022-10-16T02:47:47;49908.25;;;-141.28;100.00
7022;BME280;3552;42.664;23.406;2022-10-16T02:50:15;49921.97;;;-141.28;100.00
7022;BME280;3552;42.664;23.406;2022-10-16T02:52:42;49933.75;;;-141.28;100.00
7022;BME280;3552;42.664;23.406;2022-10-16T02:55:09;49918.06;;;-141.28;100.00
7022;BME280;3552;42.664;23.406;2022-10-16T02:57:36;49955.34;;;-141.28;100.00
7022;BME280;3552;42.664;23.406;2022-10-16T03:00:09;49976.94;;;-141.28;100.00
7022;BME280;3552;42.664;23.406;2022-10-16T03:02:38;50018.16;;;-141.28;100.00
7022;BME280;3552;42.664;23.406;2022-10-16T03:05:05;50031.88;;;-141.28;100.00
7022;BME280;3552;42.664;23.406;2022-10-16T03:07:33;50063.28;;;-141.28;100.00
7022;BME280;3552;42.664;23.406;2022-10-16T03:10:00;50055.44;;;-141.28;100.00
7022;BME280;3552;42.664;23.406;2022-10-16T03:12:27;50053.47;;;-141.28;100.00
7022;BME280;3552;42.664;23.406;2022-10-16T03:14:54;50082.91;;;-141.28;100.00
7022;BME280;3552;42.664;23.406;2022-10-16T03:17:23;50124.13;;;-141.28;100.00
7022;BME280;3552;42.664;23.406;2022-10-16T03:19:51;50100.56;;;-141.28;100.00
7022;BME280;3552;42.664;23.406;2022-10-16T03:22:17;50110.38;;;-141.28;100.00
7022;BME280;3552;42.664;23.406;2022-10-16T03:24:45;50104.50;;;-141.28;100.00
7022;BME280;3552;42.664;23.406;2022-10-16T03:27:11;50161.41;;;-141.28;100.00
7022;BME280;3552;42.664;23.406;2022-10-16T03:29:38;50161.41;;;-141.28;100.00
7022;BME280;3552;42.664;23.406;2022-10-16T03:32:05;50135.91;;;-141.28;100.00
7022;BME280;3552;42.664;23.406;2022-10-16T03:34:34;50202.63;;;-141.28;100.00
7022;BME280;3552;42.664;23.406;2022-10-16T03:37:01;50232.06;;;-141.28;100.00
7022;BME280;3552;42.664;23.406;2022-10-16T03:39:29;50267.41;;;-141.28;100.00
7022;BME280;3552;42.664;23.406;2022-10-16T03:41:56;50283.09;;;-141.28;100.00
7022;BME280;3552;42.664;23.406;2022-10-16T03:44:23;50314.50;;;-141.28;100.00
7022;BME280;3552;42.664;23.406;2022-10-16T03:46:49;50338.06;;;-141.28;100.00
7022;BME280;3552;42.664;23.406;2022-10-16T03:49:16;50381.25;;;-141.28;100.00
7022;BME280;3552;42.664;23.406;2022-10-16T03:51:45;50444.06;;;-141.28;100.00
7022;BME280;3552;42.664;23.406;2022-10-16T03:54:12;50449.94;;;-141.28;100.00
7022;BME280;3552;42.664;23.406;2022-10-16T03:56:39;50495.09;;;-141.28;100.00
7022;BME280;3552;42.664;23.406;2022-10-16T03:59:06;50487.25;;;-141.28;100.00
7022;BME280;3552;42.664;23.406;2022-10-16T04:01:33;50506.88;;;-141.28;100.00
7022;BME280;3552;42.664;23.406;2022-10-16T04:04:02;50561.81;;;-141.28;100.00
7022;BME280;3552;42.664;23.406;2022-10-16T04:06:29;50542.19;;;-141.28;100.00
7022;BME280;3552;42.664;23.406;2022-10-16T04:08:58;50620.72;;;-141.28;100.00
7022;BME280;3552;42.664;23.406;2022-10-16T04:11:24;50695.31;;;-141.28;100.00
7022;BME280;3552;42.664;23.406;2022-10-16T04:13:52;50746.34;;;-141.28;100.00
7022;BME280;3552;42.664;23.406;2022-10-16T04:16:21;50793.47;;;-141.28;100.00
7022;BME280;3552;42.664;23.406;2022-10-16T04:18:48;50834.69;;;-141.28;100.00
7022;BME280;3552;42.664;23.406;2022-10-16T04:21:14;50946.59;;;-141.28;100.00
7022;BME280;3552;42.664;23.406;2022-10-16T04:23:41;50991.72;;;-141.28;100.00
7022;BME280;3552;42.664;23.406;2022-10-16T04:26:10;51019.22;;;-141.28;100.00
7022;BME280;3552;42.664;23.406;2022-10-16T04:28:38;50883.75;;;-141.28;100.00
7022;BME280;3552;42.664;23.406;2022-10-16T04:31:05;50663.91;;;-141.28;100.00
7022;BME280;3552;42.664;23.406;2022-10-16T04:33:33;50820.94;;;-141.28;100.00
7022;BME280;3552;42.664;23.406;2022-10-16T04:36:02;50773.81;;;-141.28;100.00
7022;BME280;3552;42.664;23.406;2022-10-16T04:38:30;50809.16;;;-141.28;100.00
7022;BME280;3552;42.664;23.406;2022-10-16T04:40:57;50970.13;;;-141.28;100.00
7022;BME280;3552;42.664;23.406;2022-10-16T04:43:26;51127.19;;;-141.28;100.00
7022;BME280;3552;42.664;23.406;2022-10-16T04:45:53;51197.88;;;-141.28;100.00
7022;BME280;3552;42.664;23.406;2022-10-16T04:48:22;51225.34;;;-141.28;100.00
7022;BME280;3552;42.664;23.406;2022-10-16T04:50:49;51264.63;;;-141.28;100.00
7022;BME280;3552;42.664;23.406;2022-10-16T04:53:17;51343.16;;;-141.28;100.00
7022;BME280;3552;42.664;23.406;2022-10-16T04:55:45;51358.88;;;-141.28;100.00
7022;BME280;3552;42.664;23.406;2022-10-16T04:58:12;51178.25;;;-141.28;100.00
7022;BME280;3552;42.664;23.406;2022-10-16T05:00:41;51178.25;;;-141.28;100.00
7022;BME280;3552;42.664;23.406;2022-10-16T05:03:08;51229.28;;;-141.28;100.00
7022;BME280;3552;42.664;23.406;2022-10-16T05:05:35;51270.50;;;-141.28;100.00
7022;BME280;3552;42.664;23.406;2022-10-16T05:08:02;51292.13;;;-141.28;100.00
7022;BME280;3552;42.664;23.406;2022-10-16T05:10:29;51337.28;;;-141.28;100.00
7022;BME280;3552;42.664;23.406;2022-10-16T05:12:57;51360.81;;;-141.28;100.00
7022;BME280;3552;42.664;23.406;2022-10-16T05:15:24;51378.50;;;-141.28;100.00
7022;BME280;3552;42.664;23.406;2022-10-16T05:17:54;51398.13;;;-141.28;100.00
7022;BME280;3552;42.664;23.406;2022-10-16T05:20:21;51394.22;;;-141.28;100.00
7022;BME280;3552;42.664;23.406;2022-10-16T05:22:49;51388.31;;;-141.28;100.00
7022;BME280;3552;42.664;23.406;2022-10-16T05:25:16;51563.06;;;-141.28;100.00
7022;BME280;3552;42.664;23.406;2022-10-16T05:27:46;51623.94;;;-141.28;100.00
7022;BME280;3552;42.664;23.406;2022-10-16T05:30:13;51608.22;;;-141.28;100.00
7022;BME280;3552;42.664;23.406;2022-10-16T05:32:40;51394.22;;;-141.28;100.00
7022;BME280;3552;42.664;23.406;2022-10-16T05:35:09;50974.06;;;-141.28;100.00
7022;BME280;3552;42.664;23.406;2022-10-16T05:37:35;50797.38;;;-141.28;100.00
7022;BME280;3552;42.664;23.406;2022-10-16T05:40:03;50852.34;;;-141.28;100.00
7022;BME280;3552;42.664;23.406;2022-10-16T05:42:30;51292.13;;;-141.28;100.00
7022;BME280;3552;42.664;23.406;2022-10-16T05:44:57;51653.38;;;-141.28;100.00
7022;BME280;3552;42.664;23.406;2022-10-16T05:47:24;51849.75;;;-141.28;100.00
7022;BME280;3552;42.664;23.406;2022-10-16T05:49:51;52030.41;;;-141.28;100.00
7022;BME280;3552;42.664;23.406;2022-10-16T05:52:20;52069.69;;;-141.28;100.00
7022;BME280;3552;42.664;23.406;2022-10-16T05:54:46;52183.59;;;-141.28;100.00
7022;BME280;3552;42.664;23.406;2022-10-16T05:57:13;52360.34;;;-141.28;100.00
7022;BME280;3552;42.664;23.406;2022-10-16T05:59:40;52383.91;;;-141.28;100.00
7022;BME280;3552;42.664;23.406;2022-10-16T06:02:12;52419.25;;;-141.28;100.00
7022;BME280;3552;42.664;23.406;2022-10-16T06:04:39;52271.97;;;-141.28;100.00
7022;BME280;3552;42.664;23.406;2022-10-16T06:07:06;52118.78;;;-141.28;100.00
7022;BME280;3552;42.664;23.406;2022-10-16T06:09:35;51896.88;;;-141.28;100.00
7022;BME280;3552;42.664;23.406;2022-10-16T06:12:02;51733.88;;;-141.28;100.00
7022;BME280;3552;42.664;23.406;2022-10-16T06:14:30;51547.34;;;-141.28;100.00
7022;BME280;3552;42.664;23.406;2022-10-16T06:16:57;51437.41;;;-141.28;100.00
7022;BME280;3552;42.664;23.406;2022-10-16T06:19:24;51325.50;;;-141.28;100.00
7022;BME280;3552;42.664;23.406;2022-10-16T06:21:51;51193.94;;;-141.28;100.00
7022;BME280;3552;42.664;23.406;2022-10-16T06:24:18;51195.91;;;-141.28;100.00
7022;BME280;3552;42.664;23.406;2022-10-16T06:26:46;51158.59;;;-141.28;100.00
7022;BME280;3552;42.664;23.406;2022-10-16T06:29:13;51131.13;;;-141.28;100.00
7022;BME280;3552;42.664;23.406;2022-10-16T06:31:41;51140.94;;;-141.28;100.00
7022;BME280;3552;42.664;23.406;2022-10-16T06:34:09;51148.78;;;-141.28;100.00
7022;BME280;3552;42.664;23.406;2022-10-16T06:36:37;51199.84;;;-141.28;100.00
7022;BME280;3552;42.664;23.406;2022-10-16T06:39:05;51184.13;;;-141.28;100.00
7022;BME280;3552;42.664;23.406;2022-10-16T06:41:33;51245.00;;;-141.28;100.00
7022;BME280;3552;42.664;23.406;2022-10-16T06:44:01;51241.06;;;-141.28;100.00
7022;BME280;3552;42.664;23.406;2022-10-16T06:46:31;51215.53;;;-141.28;100.00
7022;BME280;3552;42.664;23.406;2022-10-16T06:49:00;51197.88;;;-141.28;100.00
7022;BME280;3552;42.664;23.406;2022-10-16T06:51:27;51205.72;;;-141.28;100.00
7022;BME280;3552;42.664;23.406;2022-10-16T06:53:55;51199.84;;;-141.28;100.00
7022;BME280;3552;42.664;23.406;2022-10-16T06:56:24;51245.00;;;-141.28;100.00
7022;BME280;3552;42.664;23.406;2022-10-16T06:58:52;51235.19;;;-141.28;100.00
7022;BME280;3552;42.664;23.406;2022-10-16T07:01:22;51241.06;;;-141.28;100.00
7022;BME280;3552;42.664;23.406;2022-10-16T07:03:50;51245.00;;;-141.28;100.00
7022;BME280;3552;42.664;23.406;2022-10-16T07:06:18;51258.72;;;-141.28;100.00
7022;BME280;3552;42.664;23.406;2022-10-16T07:08:46;51225.34;;;-141.28;100.00
7022;BME280;3552;42.664;23.406;2022-10-16T07:11:15;51252.84;;;-141.28;100.00
7022;BME280;3552;42.664;23.406;2022-10-16T07:13:44;51284.25;;;-141.28;100.00
7022;BME280;3552;42.664;23.406;2022-10-16T07:16:14;51288.19;;;-141.28;100.00
7022;BME280;3552;42.664;23.406;2022-10-16T07:18:44;51323.53;;;-141.28;100.00
7022;BME280;3552;42.664;23.406;2022-10-16T07:21:13;51354.94;;;-141.28;100.00
7022;BME280;3552;42.664;23.406;2022-10-16T07:23:40;51331.38;;;-141.28;100.00
7022;BME280;3552;42.664;23.406;2022-10-16T07:26:08;51358.88;;;-141.28;100.00
7022;BME280;3552;42.664;23.406;2022-10-16T07:28:35;51315.66;;;-141.28;100.00
7022;BME280;3552;42.664;23.406;2022-10-16T07:31:03;51301.94;;;-141.28;100.00
7022;BME280;3552;42.664;23.406;2022-10-16T07:33:31;51272.47;;;-141.28;100.00
7022;BME280;3552;42.664;23.406;2022-10-16T07:35:59;51288.19;;;-141.28;100.00
7022;BME280;3552;42.664;23.406;2022-10-16T07:38:27;51299.97;;;-141.28;100.00
7022;BME280;3552;42.664;23.406;2022-10-16T07:40:58;51339.22;;;-141.28;100.00
7022;BME280;3552;42.664;23.406;2022-10-16T07:43:25;51362.78;;;-141.28;100.00
7022;BME280;3552;42.664;23.406;2022-10-16T07:45:53;51358.88;;;-141.28;100.00
7022;BME280;3552;42.664;23.406;2022-10-16T07:48:20;51321.56;;;-141.28;100.00
7022;BME280;3552;42.664;23.406;2022-10-16T07:50:49;51356.91;;;-141.28;100.00
7022;BME280;3552;42.664;23.406;2022-10-16T07:53:17;51321.56;;;-141.28;100.00
7022;BME280;3552;42.664;23.406;2022-10-16T07:55:44;51262.66;;;-141.28;100.00
7022;BME280;3552;42.664;23.406;2022-10-16T07:58:11;51288.19;;;-141.28;100.00
7022;BME280;3552;42.664;23.406;2022-10-16T08:00:39;51254.81;;;-141.28;100.00
7022;BME280;3552;42.664;23.406;2022-10-16T08:03:05;51225.34;;;-141.28;100.00
7022;BME280;3552;42.664;23.406;2022-10-16T08:05:33;51146.81;;;-141.28;100.00
7022;BME280;3552;42.664;23.406;2022-10-16T08:08:00;51146.81;;;-141.28;100.00
7022;BME280;3552;42.664;23.406;2022-10-16T08:10:29;51115.41;;;-141.28;100.00
7022;BME280;3552;42.664;23.406;2022-10-16T08:12:57;51056.53;;;-141.28;100.00
7022;BME280;3552;42.664;23.406;2022-10-16T08:15:27;51115.41;;;-141.28;100.00
7022;BME280;3552;42.664;23.406;2022-10-16T08:17:58;51087.94;;;-141.28;100.00
7022;BME280;3552;42.664;23.406;2022-10-16T08:20:25;51078.13;;;-141.28;100.00
7022;BME280;3552;42.664;23.406;2022-10-16T08:22:53;51109.53;;;-141.28;100.00
7022;BME280;3552;42.664;23.406;2022-10-16T08:25:21;50968.19;;;-141.28;100.00
7022;BME280;3552;42.664;23.406;2022-10-16T08:27:50;50817.03;;;-141.28;100.00
7022;BME280;3552;42.664;23.406;2022-10-16T08:30:18;50695.31;;;-141.28;100.00
7022;BME280;3552;42.664;23.406;2022-10-16T08:32:46;50432.28;;;-141.28;100.00
7022;BME280;3552;42.664;23.406;2022-10-16T08:35:13;50365.53;;;-141.28;100.00
7022;BME280;3552;42.664;23.406;2022-10-16T08:37:40;50267.41;;;-141.28;100.00
7022;BME280;3552;42.664;23.406;2022-10-16T08:40:16;50245.81;;;-141.28;100.00
7022;BME280;3552;42.664;23.406;2022-10-16T08:48:42;50497.06;;;-141.28;100.00
7022;BME280;3552;42.664;23.406;2022-10-16T08:51:15;50471.53;;;-141.28;100.00
7022;BME280;3552;42.664;23.406;2022-10-16T08:53:48;50322.34;;;-141.28;100.00
7022;BME280;3552;42.664;23.406;2022-10-16T08:56:17;50145.72;;;-141.28;100.00
7022;BME280;3552;42.664;23.406;2022-10-16T08:58:46;50181.03;;;-141.28;100.00
7022;BME280;3552;42.664;23.406;2022-10-16T09:01:15;49994.59;;;-141.28;100.00
7022;BME280;3552;42.664;23.406;2022-10-16T09:04:12;49839.56;;;-141.28;100.00
7022;BME280;3552;42.664;23.406;2022-10-16T09:06:46;49823.84;;;-141.28;100.00
7022;BME280;3552;42.664;23.406;2022-10-16T09:12:12;49678.63;;;-141.28;100.00
7022;BME280;3552;42.664;23.406;2022-10-16T09:15:00;49662.94;;;-141.28;100.00
7022;BME280;3552;42.664;23.406;2022-10-16T09:17:37;49698.25;;;-141.28;100.00
7022;BME280;3552;42.664;23.406;2022-10-16T09:20:35;49615.84;;;-141.28;100.00
7022;BME280;3552;42.664;23.406;2022-10-16T09:23:25;49555.00;;;-141.28;100.00
7022;BME280;3552;42.664;23.406;2022-10-16T09:25:53;50216.38;;;-141.28;100.00
7022;BME280;3552;42.664;23.406;2022-10-16T09:28:21;49329.34;;;-141.28;100.00
7022;BME280;3552;42.664;23.406;2022-10-16T09:30:48;49431.38;;;-141.28;100.00
7022;BME280;3552;42.664;23.406;2022-10-16T09:33:17;49290.09;;;-141.28;100.00
7022;BME280;3552;42.664;23.406;2022-10-16T09:35:48;49335.22;;;-141.28;100.00
7022;BME280;3552;42.664;23.406;2022-10-16T09:38:25;49329.34;;;-141.28;100.00
7022;BME280;3552;42.664;23.406;2022-10-16T09:40:54;49384.28;;;-141.28;100.00
7022;BME280;3552;42.664;23.406;2022-10-16T09:43:23;49470.63;;;-141.28;100.00
7022;BME280;3552;42.664;23.406;2022-10-16T09:45:54;49305.78;;;-141.28;100.00
7022;BME280;3552;42.664;23.406;2022-10-16T09:48:22;49388.22;;;-141.28;100.00
7022;BME280;3552;42.664;23.406;2022-10-16T09:50:58;49331.31;;;-141.28;100.00
7022;BME280;3552;42.664;23.406;2022-10-16T09:53:40;49180.22;;;-141.28;100.00
7022;BME280;3552;42.664;23.406;2022-10-16T09:56:10;49252.81;;;-141.28;100.00
7022;BME280;3552;42.664;23.406;2022-10-16T09:58:43;49197.88;;;-141.28;100.00
7022;BME280;3552;42.664;23.406;2022-10-16T10:01:16;49188.06;;;-141.28;100.00
7022;BME280;3552;42.664;23.406;2022-10-16T10:03:44;49168.44;;;-141.28;97.63
7022;BME280;3552;42.664;23.406;2022-10-16T10:06:21;49156.66;;;-141.28;93.05
7022;BME280;3552;42.664;23.406;2022-10-16T10:08:57;49176.28;;;-141.28;93.19
7022;BME280;3552;42.664;23.406;2022-10-16T10:11:43;49184.13;;;-141.28;83.47
7022;BME280;3552;42.664;23.406;2022-10-16T10:14:17;49168.44;;;-141.28;79.00
7022;BME280;3552;42.664;23.406;2022-10-16T10:16:45;49176.28;;;-141.28;79.96
7022;BME280;3552;42.664;23.406;2022-10-16T10:19:17;49203.75;;;-141.28;81.55
7022;BME280;3552;42.664;23.406;2022-10-16T10:21:47;49223.38;;;-141.28;81.74
7022;BME280;3552;42.664;23.406;2022-10-16T10:24:16;49176.28;;;-141.28;74.57
7022;BME280;3552;42.664;23.406;2022-10-16T10:26:48;49215.53;;;-141.28;77.24
7022;BME280;3552;42.664;23.406;2022-10-16T10:29:28;49105.66;;;-141.28;75.84
7022;BME280;3552;42.664;23.406;2022-10-16T10:32:05;49137.06;;;-141.28;70.87
7022;BME280;3552;42.664;23.406;2022-10-16T10:34:48;49184.13;;;-141.28;64.66
7022;BME280;3552;42.664;23.406;2022-10-16T10:37:28;49199.84;;;-141.28;67.27
7022;BME280;3552;42.664;23.406;2022-10-16T10:40:08;49199.84;;;-141.28;66.86
7022;BME280;3552;42.664;23.406;2022-10-16T10:42:43;49209.66;;;-141.28;71.38
7022;BME280;3552;42.664;23.406;2022-10-16T10:45:22;49174.34;;;-141.28;58.69
7022;BME280;3552;42.664;23.406;2022-10-16T10:48:05;49186.09;;;-141.28;58.33
7022;BME280;3552;42.664;23.406;2022-10-16T10:50:39;49190.03;;;-141.28;60.46
7022;BME280;3552;42.664;23.406;2022-10-16T10:53:21;49186.09;;;-141.28;58.46
7022;BME280;3552;42.664;23.406;2022-10-16T10:55:52;49192.00;;;-141.28;59.56
7022;BME280;3552;42.664;23.406;2022-10-16T10:58:40;49195.91;;;-141.28;59.61
7022;BME280;3552;42.664;23.406;2022-10-16T11:01:12;49082.13;;;-141.28;59.30
7022;BME280;3552;42.664;23.406;2022-10-16T11:04:11;49144.91;;;-141.28;58.73
7022;BME280;3552;42.664;23.406;2022-10-16T11:06:48;49164.53;;;-141.28;59.05
7022;BME280;3552;42.664;23.406;2022-10-16T11:09:24;49209.66;;;-141.28;61.76
7022;BME280;3552;42.664;23.406;2022-10-16T11:11:55;49176.28;;;-141.28;66.76
7022;BME280;3552;42.664;23.406;2022-10-16T11:14:28;49111.53;;;-141.28;63.37
7022;BME280;3552;42.664;23.406;2022-10-16T11:16:59;49113.50;;;-141.28;58.35
7022;BME280;3552;42.664;23.406;2022-10-16T11:19:38;49117.44;;;-141.28;58.86
7022;BME280;3552;42.664;23.406;2022-10-16T11:22:11;49121.34;;;-141.28;58.08
7022;BME280;3552;42.664;23.406;2022-10-16T11:24:46;49101.72;;;-141.28;57.88
7022;BME280;3552;42.664;23.406;2022-10-16T11:27:18;49109.59;;;-141.28;59.37
7022;BME280;3552;42.664;23.406;2022-10-16T11:29:50;49107.63;;;-141.28;58.25
7022;BME280;3552;42.664;23.406;2022-10-16T11:32:24;49129.19;;;-141.28;57.70
7022;BME280;3552;42.664;23.406;2022-10-16T11:35:02;49009.50;;;-141.28;59.13
7022;BME280;3552;42.664;23.406;2022-10-16T11:37:37;49148.81;;;-141.28;63.14
7022;BME280;3552;42.664;23.406;2022-10-16T11:40:19;49154.72;;;-141.28;62.67
7022;BME280;3552;42.664;23.406;2022-10-16T11:42:51;49113.50;;;-141.28;59.97
7022;BME280;3552;42.664;23.406;2022-10-16T11:45:27;49164.53;;;-141.28;61.99
7022;BME280;3552;42.664;23.406;2022-10-16T11:48:02;49121.34;;;-141.28;60.35
7022;BME280;3552;42.664;23.406;2022-10-16T11:50:37;49258.69;;;-141.28;62.41
7022;BME280;3552;42.664;23.406;2022-10-16T11:53:13;49162.56;;;-141.28;63.20
7022;BME280;3552;42.664;23.406;2022-10-16T11:55:46;49180.22;;;-141.28;62.79
7022;BME280;3552;42.664;23.406;2022-10-16T11:58:21;49133.13;;;-141.28;62.46
7022;BME280;3552;42.664;23.406;2022-10-16T12:00:58;49133.13;;;-141.28;62.44
7022;BME280;3552;42.664;23.406;2022-10-16T12:03:33;49109.59;;;-141.28;61.16
7022;BME280;3552;42.664;23.406;2022-10-16T12:06:14;49101.72;;;-141.28;58.63
7022;BME280;3552;42.664;23.406;2022-10-16T12:08:46;49005.59;;;-141.28;58.25
7022;BME280;3552;42.664;23.406;2022-10-16T12:11:35;49082.13;;;-141.28;56.45
7022;BME280;3552;42.664;23.406;2022-10-16T12:17:24;49027.19;;;-141.28;53.75
7022;BME280;3552;42.664;23.406;2022-10-16T12:19:59;48984.00;;;-141.28;52.90
7022;BME280;3552;42.664;23.406;2022-10-16T12:22:28;49038.94;;;-141.28;53.77
7022;BME280;3552;42.664;23.406;2022-10-16T12:24:57;49441.19;;;-141.28;56.89
7022;BME280;3552;42.664;23.406;2022-10-16T12:27:29;49038.94;;;-141.28;54.76
7022;BME280;3552;42.664;23.406;2022-10-16T12:29:59;49113.50;;;-141.28;54.77
7022;BME280;3552;42.664;23.406;2022-10-16T12:32:39;48987.94;;;-141.28;53.28
7022;BME280;3552;42.664;23.406;2022-10-16T12:35:19;48964.38;;;-141.28;52.27
7022;BME280;3552;42.664;23.406;2022-10-16T12:37:47;48984.00;;;-141.28;52.82
7022;BME280;3552;42.664;23.406;2022-10-16T12:40:25;48970.28;;;-141.28;52.98
7022;BME280;3552;42.664;23.406;2022-10-16T12:42:57;48970.28;;;-141.28;52.08
7022;BME280;3552;42.664;23.406;2022-10-16T12:45:29;48956.53;;;-141.28;52.25
7022;BME280;3552;42.664;23.406;2022-10-16T12:47:57;48931.03;;;-141.28;51.35
7022;BME280;3552;42.664;23.406;2022-10-16T12:50:29;48905.53;;;-141.28;50.13
7022;BME280;3552;42.664;23.406;2022-10-16T12:52:58;48936.91;;;-141.28;49.06
7022;BME280;3552;42.664;23.406;2022-10-16T12:55:26;48960.47;;;-141.28;50.34
7022;BME280;3552;42.664;23.406;2022-10-16T12:58:07;48891.78;;;-141.28;49.63
7022;BME280;3552;42.664;23.406;2022-10-16T13:00:43;48956.53;;;-141.28;49.04
7022;BME280;3552;42.664;23.406;2022-10-16T13:03:29;48987.94;;;-141.28;48.64
7022;BME280;3552;42.664;23.406;2022-10-16T13:06:11;48995.78;;;-141.28;49.01
7022;BME280;3552;42.664;23.406;2022-10-16T13:08:57;48913.38;;;-141.28;51.46
7022;BME280;3552;42.664;23.406;2022-10-16T13:11:39;49046.78;;;-141.28;51.52
7022;BME280;3552;42.664;23.406;2022-10-16T13:14:24;49033.06;;;-141.28;52.00